Time;durP1;ratioP1;P1;durP2;ratioP2;P2;SDS_P1;SDS_P2;PMS_P1;PMS_P2;Temp;Humidity;BMP_temperature;BMP_pressure;BME280_temperature;BME280_humidity;BME280_pressure;Samples;Min_cycle;Max_cycle;Signal;HPM_P1;HPM_P2
2022/12/03 00:00:13;;;;;;;;;36.00;31.00;;;;;7.40;73.85;-19411.22;6207443;22;45366;-93
2022/12/03 00:02:39;;;;;;;;;45.33;34.00;;;;;8.08;74.08;-19429.09;6208030;22;45276;-94
2022/12/03 00:05:05;;;;;;;;;39.67;32.00;;;;;8.46;73.80;-19439.09;6313537;22;45459;-94
2022/12/03 00:07:31;;;;;;;;;38.33;31.00;;;;;7.97;73.61;-19426.25;6313019;22;47127;-94
2022/12/03 00:09:56;;;;;;;;;38.00;31.00;;;;;8.06;73.64;-19428.53;6313827;22;45473;-93
2022/12/03 00:12:22;;;;;;;;;35.67;32.67;;;;;7.79;73.55;-19421.50;6206730;22;45327;-93
2022/12/03 00:14:53;;;;;;;;;36.67;33.33;;;;;7.19;74.19;-19405.66;6313031;22;45449;-90
2022/12/03 00:17:19;;;;;;;;;47.67;36.33;;;;;7.87;73.44;-19423.41;6201876;22;46193;-90
2022/12/03 00:22:23;;;;;;;;;43.67;35.00;;;;;7.89;73.89;-19423.94;6238322;22;45603;-92
2022/12/03 00:24:51;;;;;;;;;42.33;33.67;;;;;7.86;73.45;-19423.25;6334876;22;45579;-92
2022/12/03 00:27:17;;;;;;;;;42.33;31.33;;;;;7.70;73.88;-19418.94;6333368;22;46508;-90
2022/12/03 00:29:42;;;;;;;;;36.67;32.00;;;;;8.38;73.85;-19437.06;6334380;22;45346;-91
2022/12/03 00:32:42;;;;;;;;;42.33;33.33;;;;;8.44;74.11;-19438.69;6334618;22;45849;-92
2022/12/03 00:35:22;;;;;;;;;36.67;31.33;;;;;6.59;73.35;-19389.69;6331800;22;45509;-90
2022/12/03 00:37:47;;;;;;;;;37.67;31.33;;;;;8.47;73.34;-19439.22;6305466;22;46686;-92
2022/12/03 00:40:43;;;;;;;;;46.67;35.00;;;;;8.32;73.69;-19435.31;6335329;22;45436;-89
2022/12/03 00:43:08;;;;;;;;;42.00;29.33;;;;;7.68;73.57;-19418.38;6334399;22;45442;-91
2022/12/03 00:45:35;;;;;;;;;34.67;31.67;;;;;8.07;73.40;-19428.69;6336553;22;45604;-90
2022/12/03 00:48:01;;;;;;;;;41.33;34.67;;;;;8.45;73.19;-19438.97;6333643;22;47946;-90
2022/12/03 00:50:26;;;;;;;;;44.00;34.67;;;;;8.40;72.95;-19437.47;6334531;22;45333;-91
2022/12/03 00:52:51;;;;;;;;;34.67;33.33;;;;;7.12;73.18;-19403.66;6336863;22;45771;-95
2022/12/03 00:55:17;;;;;;;;;36.67;29.00;;;;;7.95;73.63;-19425.69;6338339;22;45582;-92
2022/12/03 00:57:42;;;;;;;;;36.67;32.33;;;;;7.35;73.09;-19409.72;6309520;22;47016;-92
2022/12/03 01:00:11;;;;;;;;;38.67;31.00;;;;;8.15;73.61;-19430.97;6336826;22;45851;-92
2022/12/03 01:02:37;;;;;;;;;37.67;32.33;;;;;8.48;73.60;-19439.50;6336416;22;45276;-93
2022/12/03 01:05:03;;;;;;;;;37.00;33.00;;;;;8.44;73.02;-19438.69;6335818;22;45313;-91
2022/12/03 01:07:28;;;;;;;;;35.33;32.33;;;;;7.11;73.11;-19403.38;6308982;22;47214;-91
2022/12/03 01:09:54;;;;;;;;;40.33;32.33;;;;;8.16;73.45;-19431.09;6337698;22;45281;-91
2022/12/03 01:12:20;;;;;;;;;32.67;32.00;;;;;8.06;73.36;-19428.41;6337402;22;45273;-91
2022/12/03 01:14:46;;;;;;;;;39.67;32.67;;;;;7.56;73.01;-19415.41;6336812;22;45613;-91
2022/12/03 01:17:11;;;;;;;;;36.00;32.33;;;;;8.06;73.30;-19428.53;6337772;22;45349;-91
2022/12/03 01:19:38;;;;;;;;;44.33;34.67;;;;;7.68;73.59;-19418.38;6337162;22;45653;-91
2022/12/03 01:22:03;;;;;;;;;31.33;30.00;;;;;7.76;73.01;-19420.69;6340472;22;45389;-91
2022/12/03 01:24:29;;;;;;;;;37.67;33.33;;;;;8.24;72.88;-19433.28;6337408;22;45335;-91
2022/12/03 01:26:55;;;;;;;;;39.67;32.33;;;;;8.42;72.36;-19438.16;6336932;22;45555;-91
2022/12/03 01:29:21;;;;;;;;;41.00;34.00;;;;;7.49;72.81;-19413.38;6336927;22;45227;-92
2022/12/03 01:34:30;;;;;;;;;39.67;36.33;;;;;7.86;73.04;-19423.25;6338585;22;45386;-92
2022/12/03 01:36:56;;;;;;;;;45.25;37.50;;;;;7.53;72.87;-19414.59;6363423;22;47197;-93
2022/12/03 01:39:22;;;;;;;;;37.75;33.50;;;;;8.13;72.90;-19430.44;6336084;22;45417;-92
2022/12/03 01:41:50;;;;;;;;;35.67;31.00;;;;;7.99;72.43;-19426.78;6363553;22;45329;-91
2022/12/03 01:44:38;;;;;;;;;41.00;33.67;;;;;7.32;72.96;-19408.91;6363413;22;45734;-92
2022/12/03 01:47:06;;;;;;;;;41.67;34.00;;;;;7.80;72.65;-19421.66;6334345;22;48119;-91
2022/12/03 01:49:42;;;;;;;;;37.67;33.33;;;;;8.40;73.39;-19437.47;6337238;22;45318;-92
2022/12/03 01:52:14;;;;;;;;;33.33;30.33;;;;;8.11;72.00;-19429.91;6337072;22;45623;-92
2022/12/03 01:54:43;;;;;;;;;37.00;30.67;;;;;8.37;72.82;-19436.78;6337990;22;45342;-91
2022/12/03 01:57:29;;;;;;;;;31.67;30.00;;;;;8.19;72.64;-19432.06;6337499;22;45613;-92
2022/12/03 02:00:03;;;;;;;;;38.00;29.67;;;;;8.10;72.41;-19429.47;6337584;22;45341;-92
2022/12/03 02:05:20;;;;;;;;;37.33;31.33;;;;;7.30;72.32;-19408.50;6337290;22;45175;-92
2022/12/03 02:07:46;;;;;;;;;40.00;30.33;;;;;8.17;72.42;-19431.53;6336350;22;47489;-94
2022/12/03 02:10:17;;;;;;;;;41.33;34.33;;;;;6.56;72.38;-19388.88;6337592;22;45606;-93
2022/12/03 02:12:53;;;;;;;;;45.33;36.33;;;;;8.37;72.05;-19436.66;6338381;22;45564;-92
2022/12/03 02:15:21;;;;;;;;;39.00;33.67;;;;;7.80;71.91;-19421.66;6338130;22;45399;-93
2022/12/03 02:17:47;;;;;;;;;42.33;31.67;;;;;8.01;72.14;-19427.19;6362616;22;46991;-92
2022/12/03 02:23:23;;;;;;;;;41.67;35.00;;;;;8.24;71.89;-19433.28;6332148;22;45410;-93
2022/12/03 02:25:48;;;;;;;;;40.00;33.33;;;;;8.36;71.49;-19436.53;6337300;22;45593;-92
2022/12/03 02:28:17;;;;;;;;;40.00;32.00;;;;;7.58;71.60;-19415.81;6337372;22;45944;-92
2022/12/03 02:30:54;;;;;;;;;37.00;31.67;;;;;7.85;71.07;-19422.88;6337174;22;45481;-92
2022/12/03 02:33:20;;;;;;;;;46.33;36.33;;;;;7.99;71.54;-19426.66;6309589;22;45741;-93
2022/12/03 02:35:46;;;;;;;;;42.33;34.00;;;;;7.18;71.42;-19405.41;6336411;22;45919;-93
2022/12/03 02:38:24;;;;;;;;;43.33;35.67;;;;;8.33;70.96;-19435.56;6335801;22;45388;-93
2022/12/03 02:40:57;;;;;;;;;38.33;27.67;;;;;8.34;71.11;-19435.84;6334979;22;45342;-94
2022/12/03 02:49:51;;;;;;;;;40.33;33.00;;;;;7.76;71.39;-19420.69;6209362;22;45312;-92
2022/12/03 02:52:26;;;;;;;;;35.33;31.33;;;;;7.22;71.72;-19406.22;6208102;22;45648;-93
2022/12/03 02:54:52;;;;;;;;;41.00;33.00;;;;;8.04;71.15;-19428.00;6208728;22;45405;-94
2022/12/03 02:57:21;;;;;;;;;30.00;28.67;;;;;7.64;71.10;-19417.31;6207675;23;45271;-93
2022/12/03 02:59:50;;;;;;;;;47.33;35.67;;;;;7.63;71.34;-19417.19;6205980;23;47269;-93
2022/12/03 03:02:27;;;;;;;;;39.00;31.33;;;;;7.71;71.35;-19419.34;6208866;23;45324;-93
2022/12/03 03:04:53;;;;;;;;;27.33;23.67;;;;;7.42;71.29;-19411.63;6208580;22;45487;-93
2022/12/03 03:07:22;;;;;;;;;40.67;33.00;;;;;7.74;70.89;-19420.16;6209514;22;45369;-92
2022/12/03 03:09:51;;;;;;;;;42.33;34.00;;;;;6.60;70.72;-19389.97;6207765;22;47131;-92
2022/12/03 03:12:20;;;;;;;;;49.00;36.00;;;;;7.36;70.85;-19410.13;6210433;22;45367;-92
2022/12/03 03:14:45;;;;;;;;;40.33;33.67;;;;;6.55;70.58;-19388.75;6185041;22;45395;-92
2022/12/03 03:17:11;;;;;;;;;38.00;31.00;;;;;7.29;71.15;-19408.25;6211432;22;45176;-92
2022/12/03 03:19:41;;;;;;;;;40.33;34.33;;;;;7.87;71.17;-19423.41;6209880;22;46198;-92
2022/12/03 03:22:11;;;;;;;;;36.33;31.67;;;;;8.11;71.77;-19429.91;6209765;22;45355;-93
2022/12/03 03:24:39;;;;;;;;;37.00;29.67;;;;;7.72;71.78;-19419.59;6210750;22;45233;-93
2022/12/03 03:27:05;;;;;;;;;35.00;32.33;;;;;7.98;71.43;-19426.38;6208785;22;45773;-92
2022/12/03 03:29:32;;;;;;;;;34.00;32.33;;;;;8.17;71.57;-19431.38;6182366;22;47200;-93
2022/12/03 03:32:01;;;;;;;;;35.00;31.67;;;;;8.07;71.14;-19428.69;6210306;22;45441;-92
2022/12/03 03:34:29;;;;;;;;;34.67;30.33;;;;;6.85;71.25;-19396.47;6183617;22;45410;-93
2022/12/03 03:36:55;;;;;;;;;41.00;33.33;;;;;7.74;71.50;-19420.03;6210949;22;45298;-94
2022/12/03 03:39:21;;;;;;;;;43.00;34.00;;;;;7.73;71.73;-19419.88;6209420;22;45618;-92
2022/12/03 03:41:46;;;;;;;;;40.67;33.00;;;;;8.33;71.48;-19435.56;6182551;22;46035;-93
2022/12/03 03:44:12;;;;;;;;;44.67;34.67;;;;;6.62;70.95;-19390.38;6208701;22;45568;-93
2022/12/03 03:46:39;;;;;;;;;32.67;28.67;;;;;8.18;71.56;-19431.78;6209933;22;46380;-93
2022/12/03 03:49:20;;;;;;;;;39.33;34.67;;;;;7.17;71.30;-19405.13;6211468;22;45645;-94
2022/12/03 03:51:49;;;;;;;;;34.33;29.67;;;;;7.16;70.84;-19404.72;6211165;22;45341;-93
2022/12/03 03:54:18;;;;;;;;;33.67;33.33;;;;;7.63;71.23;-19417.03;6182895;22;45334;-93
2022/12/03 03:56:43;;;;;;;;;33.67;30.00;;;;;7.96;71.02;-19425.97;6209231;22;45601;-93
2022/12/03 03:59:09;;;;;;;;;39.00;30.67;;;;;7.86;71.02;-19423.13;6210089;22;47073;-93
2022/12/03 04:01:35;;;;;;;;;37.67;31.33;;;;;6.81;71.05;-19395.38;6209434;22;45550;-93
2022/12/03 04:04:01;;;;;;;;;36.33;30.00;;;;;7.16;70.61;-19404.72;6210606;22;45314;-93
2022/12/03 04:06:27;;;;;;;;;33.00;28.33;;;;;7.66;70.89;-19417.84;6210342;22;45469;-93
2022/12/03 04:08:53;;;;;;;;;38.33;33.33;;;;;7.57;70.37;-19415.69;6312218;22;45531;-93
2022/12/03 04:14:55;;;;;;;;;28.00;28.00;;;;;8.28;70.39;-19434.22;6210727;22;45382;-94
2022/12/03 04:17:21;;;;;;;;;32.33;27.00;;;;;8.30;70.03;-19434.75;6208412;22;45345;-93
2022/12/03 04:20:46;;;;;;;;;32.33;30.00;;;;;8.29;70.32;-19434.50;6209479;22;45264;-92
2022/12/03 04:23:11;;;;;;;;;35.00;28.67;;;;;7.41;69.81;-19411.34;6207846;22;45215;-91
2022/12/03 04:28:48;;;;;;;;;35.33;30.00;;;;;6.71;69.57;-19392.94;6209688;22;45272;-92
2022/12/03 04:36:52;;;;;;;;;32.00;30.00;;;;;7.16;69.31;-19404.72;6205718;22;45340;-93
2022/12/03 04:39:17;;;;;;;;;37.67;29.00;;;;;7.59;69.82;-19416.09;6207697;22;45342;-94
2022/12/03 04:41:55;;;;;;;;;35.33;29.00;;;;;6.51;69.02;-19387.66;6206710;22;45433;-93
2022/12/03 04:44:38;;;;;;;;;36.33;31.67;;;;;7.66;69.34;-19417.84;6206543;22;45455;-93
2022/12/03 04:47:20;;;;;;;;;30.67;28.00;;;;;7.56;68.85;-19415.28;6207604;22;45654;-94
2022/12/03 04:49:50;;;;;;;;;34.67;27.00;;;;;7.12;69.15;-19403.78;6207356;22;45521;-94
2022/12/03 04:52:22;;;;;;;;;31.33;31.00;;;;;6.53;69.04;-19388.19;6206781;22;45768;-94
2022/12/03 04:54:56;;;;;;;;;35.00;34.00;;;;;7.14;68.71;-19404.31;6206011;22;45432;-94
2022/12/03 05:03:13;;;;;;;;;36.33;28.67;;;;;8.24;68.97;-19433.28;6178853;23;46320;-95
2022/12/03 05:05:45;;;;;;;;;31.67;26.00;;;;;7.12;68.75;-19403.78;6177843;23;45456;-96
2022/12/03 05:12:27;;;;;;;;;32.67;27.00;;;;;8.23;68.65;-19433.13;6261095;22;45588;-94
2022/12/03 05:15:27;;;;;;;;;30.33;27.33;;;;;8.20;68.50;-19432.31;6334722;22;47854;-94
2022/12/03 05:21:32;;;;;;;;;30.67;26.33;;;;;6.49;68.21;-19387.13;6338611;22;45159;-93
2022/12/03 05:26:51;;;;;;;;;31.67;26.67;;;;;7.08;68.59;-19402.56;6177829;23;45476;-96
2022/12/03 05:48:55;;;;;;;;;30.00;24.33;;;;;7.53;68.26;-19414.59;6209314;22;45240;-94
2022/12/03 05:51:23;;;;;;;;;32.33;23.67;;;;;7.55;67.96;-19415.00;6207921;22;45585;-95
2022/12/03 05:53:49;;;;;;;;;31.33;25.33;;;;;7.51;67.90;-19414.06;6207809;22;45432;-95
2022/12/03 05:56:15;;;;;;;;;28.67;25.67;;;;;6.67;68.11;-19391.84;6208549;22;45485;-95
2022/12/03 05:58:40;;;;;;;;;27.33;22.33;;;;;6.56;67.62;-19388.88;6209014;22;45479;-95
2022/12/03 06:01:05;;;;;;;;;40.00;35.00;;;;;7.96;68.15;-19425.84;6208640;22;45467;-94
2022/12/03 06:04:24;;;;;;;;;35.33;30.33;;;;;8.13;68.03;-19430.31;6208355;22;45713;-95
2022/12/03 06:06:52;;;;;;;;;25.33;22.00;;;;;7.02;67.85;-19401.06;6209538;22;45173;-96
2022/12/03 06:09:20;;;;;;;;;34.00;30.67;;;;;7.02;67.41;-19400.94;6181645;23;45133;-95
2022/12/03 06:11:52;;;;;;;;;26.33;24.00;;;;;6.59;67.78;-19389.56;6207965;23;46302;-93
2022/12/03 06:14:18;;;;;;;;;27.00;23.67;;;;;7.45;67.97;-19412.31;6208850;22;45460;-94
2022/12/03 06:16:44;;;;;;;;;25.33;21.00;;;;;7.63;67.63;-19417.03;6182530;23;45715;-95
2022/12/03 06:19:09;;;;;;;;;20.67;19.33;;;;;8.07;67.60;-19428.81;6207835;22;45301;-95
2022/12/03 06:21:41;;;;;;;;;27.00;23.33;;;;;6.19;67.70;-19379.13;6181151;23;47049;-95
2022/12/03 06:26:42;;;;;;;;;31.67;27.00;;;;;7.76;67.70;-19420.69;6205315;22;45319;-95
2022/12/03 06:29:07;;;;;;;;;26.00;23.33;;;;;6.49;68.04;-19386.97;6181648;23;45955;-94
2022/12/03 06:31:32;;;;;;;;;29.00;23.67;;;;;8.11;67.91;-19429.91;6182039;22;47089;-95
2022/12/03 06:33:58;;;;;;;;;34.33;23.33;;;;;7.46;68.27;-19412.56;6208184;23;45343;-95
2022/12/03 06:36:26;;;;;;;;;26.33;21.67;;;;;6.45;68.23;-19386.03;6208088;22;45495;-94
2022/12/03 06:38:54;;;;;;;;;27.00;25.00;;;;;6.44;68.10;-19385.75;6208337;23;45421;-95
2022/12/03 06:41:20;;;;;;;;;25.33;22.00;;;;;7.48;68.21;-19413.25;6208114;22;46297;-95
2022/12/03 06:43:45;;;;;;;;;33.33;22.67;;;;;6.65;67.84;-19391.31;6208452;22;45425;-94
2022/12/03 06:46:11;;;;;;;;;20.67;20.33;;;;;6.99;67.52;-19400.25;6209798;22;45528;-94
2022/12/03 06:48:36;;;;;;;;;23.00;20.67;;;;;7.41;67.68;-19411.34;6185040;22;45405;-94
2022/12/03 06:54:23;;;;;;;;;25.33;23.67;;;;;6.75;67.26;-19394.03;6208244;22;45287;-95
2022/12/03 06:56:49;;;;;;;;;28.67;26.33;;;;;7.04;67.62;-19401.59;6208190;22;46047;-94
2022/12/03 06:59:14;;;;;;;;;32.00;26.67;;;;;8.11;67.38;-19429.75;6210970;22;45520;-95
2022/12/03 07:01:43;;;;;;;;;29.00;26.67;;;;;6.61;67.36;-19390.09;6207047;22;45669;-95
2022/12/03 07:04:08;;;;;;;;;35.67;28.00;;;;;7.00;67.38;-19400.53;6208456;22;45796;-95
2022/12/03 07:06:37;;;;;;;;;25.33;22.67;;;;;7.00;67.50;-19400.53;6209847;22;45400;-94
2022/12/03 07:09:08;;;;;;;;;28.67;27.00;;;;;7.00;67.10;-19400.53;6209357;22;45302;-95
2022/12/03 07:11:39;;;;;;;;;33.67;28.00;;;;;7.81;67.39;-19421.91;6208752;22;45715;-95
2022/12/03 07:14:09;;;;;;;;;32.00;25.67;;;;;7.51;66.93;-19414.06;6208530;22;45293;-93
2022/12/03 07:16:35;;;;;;;;;27.00;24.00;;;;;8.04;67.33;-19428.00;6210094;22;45363;-94
2022/12/03 07:19:10;;;;;;;;;30.33;26.00;;;;;7.54;67.24;-19414.75;6210484;22;45586;-95
2022/12/03 07:21:39;;;;;;;;;29.67;28.67;;;;;6.70;67.00;-19392.66;6183269;22;46910;-95
2022/12/03 07:24:05;;;;;;;;;31.33;29.33;;;;;7.48;67.30;-19413.25;6209231;22;45640;-94
2022/12/03 07:26:30;;;;;;;;;27.00;22.00;;;;;6.98;67.33;-19399.97;6183553;22;45564;-94
2022/12/03 07:28:56;;;;;;;;;28.33;24.33;;;;;7.53;67.26;-19414.47;6184149;22;45201;-94
2022/12/03 07:31:22;;;;;;;;;28.00;25.00;;;;;7.52;67.31;-19414.19;6183336;22;46926;-94
2022/12/03 07:33:47;;;;;;;;;32.00;26.67;;;;;7.00;67.13;-19400.38;6207914;22;45220;-95
2022/12/03 07:36:13;;;;;;;;;25.67;24.67;;;;;7.58;67.08;-19415.97;6209325;22;45320;-94
2022/12/03 07:38:38;;;;;;;;;27.33;22.67;;;;;6.47;67.27;-19386.44;6183552;22;45475;-94
2022/12/03 07:41:06;;;;;;;;;33.00;26.00;;;;;7.50;67.16;-19413.66;6208347;22;48136;-94
2022/12/03 07:49:44;;;;;;;;;28.00;26.67;;;;;8.14;66.82;-19430.69;6209623;22;45484;-94
2022/12/03 07:52:21;;;;;;;;;28.33;23.00;;;;;6.45;66.65;-19385.91;6333957;22;47804;-93
2022/12/03 07:55:01;;;;;;;;;24.33;20.67;;;;;6.59;66.94;-19389.56;6310039;22;45627;-94
2022/12/03 07:57:27;;;;;;;;;26.00;24.67;;;;;8.18;67.30;-19431.78;6334929;22;45398;-93
2022/12/03 07:59:52;;;;;;;;;28.00;25.33;;;;;8.20;66.84;-19432.31;6310357;22;45287;-93
2022/12/03 08:02:24;;;;;;;;;28.67;22.00;;;;;7.12;66.94;-19403.78;6177725;23;46777;-93
2022/12/03 08:05:14;;;;;;;;;27.67;21.33;;;;;8.23;67.04;-19433.00;6178394;23;45663;-93
2022/12/03 08:07:42;;;;;;;;;25.00;20.33;;;;;7.15;67.06;-19404.59;6153331;23;45305;-93
2022/12/03 08:10:11;;;;;;;;;26.00;22.00;;;;;7.17;67.02;-19405.00;6179752;23;45408;-94
2022/12/03 08:12:39;;;;;;;;;27.33;25.33;;;;;7.63;67.08;-19417.03;6152604;23;47595;-93
2022/12/03 08:15:15;;;;;;;;;25.00;21.00;;;;;8.30;66.62;-19434.91;6151914;23;45311;-91
2022/12/03 08:17:41;;;;;;;;;24.67;23.00;;;;;7.10;66.02;-19403.22;6178319;23;45158;-92
2022/12/03 08:21:05;;;;;;;;;27.67;25.33;;;;;6.76;66.52;-19394.28;6178029;23;45307;-92
2022/12/03 08:23:29;;;;;;;;;22.00;20.33;;;;;8.33;66.75;-19435.72;6173447;22;45531;-93
2022/12/03 08:26:01;;;;;;;;;26.00;21.33;;;;;7.24;66.60;-19406.88;6153846;22;45458;-92
2022/12/03 08:29:04;;;;;;;;;29.00;26.33;;;;;7.50;66.67;-19413.66;6197037;22;45461;-92
2022/12/03 08:46:29;;;;;;;;;28.00;24.67;;;;;8.46;66.36;-19439.09;6204707;22;45782;-94
2022/12/03 08:49:03;;;;;;;;;25.67;21.00;;;;;7.57;66.84;-19415.56;6207705;22;45334;-90
2022/12/03 08:51:28;;;;;;;;;22.33;21.00;;;;;7.46;66.38;-19412.56;6174012;22;45743;-89
2022/12/03 08:54:11;;;;;;;;;24.67;20.67;;;;;7.85;66.59;-19422.88;6179660;22;45381;-90
2022/12/03 08:59:39;;;;;;;;;24.33;18.67;;;;;7.86;67.07;-19423.25;6201647;22;45252;-92
2022/12/03 09:02:29;;;;;;;;;25.33;19.33;;;;;8.47;67.20;-19439.38;6206664;22;45519;-94
2022/12/03 09:04:54;;;;;;;;;19.67;19.67;;;;;7.46;66.79;-19412.72;6181683;22;45346;-90
2022/12/03 09:07:22;;;;;;;;;19.00;19.00;;;;;7.49;66.29;-19413.38;6183192;22;46959;-92
2022/12/03 09:10:09;;;;;;;;;22.67;18.00;;;;;8.54;66.25;-19441.25;6207153;22;45467;-92
2022/12/03 09:12:40;;;;;;;;;20.00;20.00;;;;;7.94;66.03;-19425.28;6210468;22;45303;-94
2022/12/03 09:15:06;;;;;;;;;22.67;21.00;;;;;7.84;65.58;-19422.72;6211242;22;45361;-93
2022/12/03 09:17:32;;;;;;;;;18.00;18.00;;;;;7.08;65.73;-19402.56;6180809;22;48155;-92
2022/12/03 09:19:58;;;;;;;;;20.33;18.00;;;;;6.85;66.17;-19396.59;6209736;22;45533;-91
2022/12/03 09:22:41;;;;;;;;;18.00;18.00;;;;;6.83;66.32;-19396.06;6181781;22;45497;-89
2022/12/03 09:25:28;;;;;;;;;22.67;20.67;;;;;8.59;66.52;-19442.47;6205315;22;45628;-93
2022/12/03 09:27:54;;;;;;;;;15.67;14.33;;;;;8.59;66.62;-19442.63;6206921;22;47264;-91
2022/12/03 09:33:21;;;;;;;;;20.00;17.33;;;;;8.60;66.83;-19442.88;6183595;22;45453;-93
2022/12/03 09:35:57;;;;;;;;;;;;;;;;;;;;;
2022/12/03 09:47:24;;;;;;;;;21.00;18.00;;;;;6.49;65.64;-19386.97;6207044;22;45881;-94
2022/12/03 10:01:40;;;;;;;;;20.33;16.67;;;;;7.94;65.09;-19423.38;6218755;22;45715;-90
2022/12/03 10:04:17;;;;;;;;;20.33;17.67;;;;;6.97;65.00;-19068.94;6239388;22;45860;-93
2022/12/03 10:12:39;;;;;;;;;17.33;15.33;;;;;8.52;64.49;-19108.84;6228358;22;45452;-85
2022/12/03 10:15:05;;;;;;;;;17.67;16.00;;;;;8.76;64.74;-19115.09;6206873;22;45677;-88
2022/12/03 10:18:01;;;;;;;;;21.00;17.00;;;;;8.71;64.67;-19113.75;6235520;22;45427;-88
2022/12/03 10:21:09;;;;;;;;;20.00;17.67;;;;;8.78;64.69;-19115.63;6237340;22;45381;-87
2022/12/03 10:24:18;;;;;;;;;19.67;17.67;;;;;7.16;64.10;-19073.84;6235575;22;46394;-85
2022/12/03 10:26:49;;;;;;;;;14.67;14.67;;;;;8.79;64.08;-19116.00;6237245;22;45403;-85
2022/12/03 10:32:45;;;;;;;;;14.00;14.00;;;;;6.97;63.78;-18739.94;6235771;22;45488;-89
2022/12/03 10:35:18;;;;;;;;;16.00;15.00;;;;;8.71;63.83;-18783.84;6237191;22;46306;-89
2022/12/03 10:38:02;;;;;;;;;15.33;14.33;;;;;8.80;63.96;-18786.31;6237754;22;45458;-90
2022/12/03 10:43:52;;;;;;;;;19.67;16.67;;;;;8.85;64.46;-18787.47;6237495;22;45749;-91
2022/12/03 10:47:07;;;;;;;;;19.33;17.00;;;;;8.88;64.25;-18788.38;6238412;22;46404;-89
2022/12/03 10:49:33;;;;;;;;;19.67;17.33;;;;;7.81;64.16;-18761.13;6240367;22;45236;-91
2022/12/03 10:51:59;;;;;;;;;17.33;12.00;;;;;8.11;64.25;-18768.78;6240339;22;45216;-92
2022/12/03 11:00:23;;;;;;;;;17.67;16.33;;;;;8.39;63.98;-18775.91;6235354;22;71625;-94
2022/12/03 11:13:57;;;;;;;;;19.33;17.67;;;;;7.15;63.88;-18415.25;6234626;22;45262;-93
2022/12/03 11:17:04;;;;;;;;;20.33;16.00;;;;;8.95;63.55;-18460.00;6240083;22;45378;-92
2022/12/03 11:36:19;;;;;;;;;15.67;14.00;;;;;7.52;63.01;-18095.06;6236444;22;45498;-92
2022/12/03 11:45:32;;;;;;;;;17.67;16.67;;;;;9.01;63.24;-18131.38;6200230;22;74044;-91
2022/12/03 11:47:58;;;;;;;;;18.00;17.00;;;;;8.77;62.80;-18125.53;6206275;22;45497;-92
2022/12/03 11:53:26;;;;;;;;;20.00;18.67;;;;;7.39;63.22;-18092.06;6235636;22;45383;-87
2022/12/03 11:56:05;;;;;;;;;16.00;15.00;;;;;6.55;62.73;-17742.78;6236858;22;46379;-87
2022/12/03 11:58:31;;;;;;;;;19.00;17.00;;;;;7.86;62.62;-17773.72;6236765;22;45341;-87
2022/12/03 12:00:59;;;;;;;;;19.33;17.00;;;;;8.97;62.94;-17800.13;6237675;22;45761;-87
2022/12/03 12:03:46;;;;;;;;;13.67;13.33;;;;;8.97;62.96;-17800.25;6237646;22;45480;-87
2022/12/03 12:06:17;;;;;;;;;17.33;15.33;;;;;6.81;62.90;-18077.75;6209565;22;46167;-87
2022/12/03 12:08:57;;;;;;;;;18.67;15.67;;;;;8.97;63.39;-18130.38;6237251;22;45426;-87
2022/12/03 12:11:34;;;;;;;;;16.00;15.67;;;;;8.47;63.52;-18118.19;6236942;22;45455;-87
2022/12/03 12:14:25;;;;;;;;;19.00;18.00;;;;;7.88;63.12;-18103.91;6210218;22;45259;-87
2022/12/03 12:16:53;;;;;;;;;17.00;15.00;;;;;7.54;62.98;-17766.16;6236991;22;46430;-87
2022/12/03 12:19:37;;;;;;;;;16.67;14.67;;;;;8.93;63.23;-17799.16;6236672;22;45323;-87
2022/12/03 12:22:17;;;;;;;;;21.67;18.33;;;;;8.96;63.30;-18130.13;6237281;22;45208;-87
2022/12/03 12:24:45;;;;;;;;;24.00;22.33;;;;;8.98;63.28;-18130.63;6236926;22;45471;-87
2022/12/03 12:27:21;;;;;;;;;18.67;18.33;;;;;9.02;63.13;-18131.50;6236332;22;45630;-87
2022/12/03 12:29:56;;;;;;;;;15.33;14.00;;;;;8.34;63.19;-17785.28;6236843;22;45314;-85
2022/12/03 12:32:37;;;;;;;;;22.00;20.67;;;;;8.98;63.00;-17800.47;6236128;22;45233;-86
2022/12/03 12:41:20;;;;;;;;;20.00;18.33;;;;;5.74;62.74;-17723.38;6237469;22;45628;-87
2022/12/03 12:43:48;;;;;;;;;27.00;24.00;;;;;8.95;63.32;-17799.63;6208658;22;46134;-87
2022/12/03 12:46:14;;;;;;;;;22.67;21.33;;;;;7.81;63.14;-17772.63;6210613;22;45457;-87
2022/12/03 12:48:40;;;;;;;;;26.33;21.00;;;;;7.63;62.99;-17768.25;6235981;22;45410;-89
2022/12/03 12:51:12;;;;;;;;;25.33;21.33;;;;;7.29;63.39;-17431.03;6235502;22;45424;-88
2022/12/03 12:53:46;;;;;;;;;18.67;18.67;;;;;7.28;63.23;-17759.97;6236097;22;45614;-89
2022/12/03 12:56:23;;;;;;;;;17.00;15.33;;;;;8.43;63.19;-17787.34;6237176;22;45361;-88
2022/12/03 12:58:49;;;;;;;;;26.33;22.00;;;;;6.31;63.57;-17737.03;6236072;22;47274;-88
2022/12/03 13:01:25;;;;;;;;;23.33;19.33;;;;;9.03;63.35;-18131.75;6208423;22;45988;-88
2022/12/03 13:03:51;;;;;;;;;24.67;22.00;;;;;7.39;63.60;-17762.75;6212004;22;45420;-90
2022/12/03 13:06:27;;;;;;;;;21.00;18.67;;;;;8.55;63.65;-18120.06;6233397;22;45449;-90
2022/12/03 13:08:53;;;;;;;;;23.00;20.33;;;;;7.33;63.35;-18090.44;6208171;22;48110;-90
2022/12/03 13:11:33;;;;;;;;;17.33;15.00;;;;;9.13;63.27;-17803.88;6236217;22;45317;-90
2022/12/03 13:14:13;;;;;;;;;16.33;16.33;;;;;6.80;63.01;-17748.50;6235567;22;45333;-89
2022/12/03 13:16:39;;;;;;;;;17.33;17.33;;;;;6.62;63.12;-17744.25;6236977;22;45322;-89
2022/12/03 13:19:15;;;;;;;;;17.33;17.00;;;;;8.82;63.08;-17796.59;6233363;22;46035;-90
2022/12/03 13:22:01;;;;;;;;;17.00;16.00;;;;;8.64;62.71;-17792.47;6237052;22;45567;-93
2022/12/03 13:25:07;;;;;;;;;16.00;15.67;;;;;7.98;62.62;-17447.13;6236519;22;45646;-93
2022/12/03 13:27:50;;;;;;;;;17.00;16.67;;;;;6.51;62.81;-17412.81;6203849;22;45512;-93
2022/12/03 13:30:27;;;;;;;;;18.67;15.67;;;;;9.07;62.81;-17472.44;6178268;22;47129;-93
2022/12/03 13:32:56;;;;;;;;;19.67;18.67;;;;;8.06;63.00;-17448.78;6152354;22;45525;-92
2022/12/03 13:35:35;;;;;;;;;17.33;16.33;;;;;7.11;62.48;-17426.75;6203306;22;45310;-93
2022/12/03 13:38:25;;;;;;;;;12.33;12.33;;;;;8.15;62.74;-17450.91;6149934;22;45740;-92
2022/12/03 13:41:02;;;;;;;;;22.67;21.67;;;;;6.52;62.53;-17084.16;6204075;22;46086;-93
2022/12/03 13:43:39;;;;;;;;;17.00;15.67;;;;;6.03;62.69;-17401.72;6178422;22;45503;-92
2022/12/03 13:46:04;;;;;;;;;13.00;13.00;;;;;7.20;62.48;-17428.91;6203889;22;45451;-92
2022/12/03 13:48:34;;;;;;;;;12.67;12.67;;;;;8.15;62.58;-17451.03;6203960;22;45413;-92
2022/12/03 13:51:34;;;;;;;;;16.00;13.33;;;;;7.94;62.44;-17116.50;6202739;22;48522;-92
2022/12/03 13:54:02;;;;;;;;;17.00;14.33;;;;;7.60;62.07;-17108.72;6203277;22;45427;-92
2022/12/03 13:57:13;;;;;;;;;14.00;14.00;;;;;6.14;62.34;-17075.53;6213345;22;45420;-92
2022/12/03 13:59:44;;;;;;;;;14.67;14.33;;;;;5.42;62.22;-17387.50;6236154;22;45648;-92
2022/12/03 14:05:09;;;;;;;;;17.00;16.33;;;;;7.19;62.63;-17428.66;6236334;22;45342;-93
2022/12/03 14:07:37;;;;;;;;;16.67;14.00;;;;;6.58;62.43;-17085.44;6236102;22;45495;-92
2022/12/03 14:13:26;;;;;;;;;17.33;15.00;;;;;7.42;62.50;-17104.53;6236085;22;45523;-92
2022/12/03 14:24:23;;;;;;;;;16.00;15.00;;;;;9.20;62.24;-16814.75;6242143;22;73992;-87
2022/12/03 14:26:48;;;;;;;;;16.33;16.00;;;;;8.80;62.09;-17136.03;6233529;22;45339;-82
2022/12/03 14:29:14;;;;;;;;;20.67;20.33;;;;;8.61;61.96;-17131.72;6234365;22;45390;-82
2022/12/03 14:31:39;;;;;;;;;19.67;17.67;;;;;9.18;62.32;-17144.50;6206830;22;45575;-84
2022/12/03 14:34:05;;;;;;;;;21.67;18.67;;;;;9.16;62.45;-17144.06;6232290;22;45639;-84
2022/12/03 14:36:30;;;;;;;;;20.00;16.00;;;;;8.32;62.62;-17125.09;6233817;22;45470;-86
2022/12/03 14:38:55;;;;;;;;;19.33;16.67;;;;;7.93;62.61;-17116.28;6235881;22;45258;-87
2022/12/03 14:44:08;;;;;;;;;16.00;15.00;;;;;8.75;62.45;-17134.88;6234720;22;45462;-85
2022/12/03 14:46:33;;;;;;;;;14.00;14.00;;;;;8.58;62.21;-17131.03;6230505;22;45720;-84
2022/12/03 14:48:59;;;;;;;;;16.33;14.33;;;;;8.97;62.19;-17139.75;6232334;22;45417;-85
2022/12/03 14:51:24;;;;;;;;;15.67;15.67;;;;;8.39;61.82;-16796.69;6206382;22;45556;-84
2022/12/03 14:53:50;;;;;;;;;17.33;15.00;;;;;8.36;61.75;-16466.09;6233514;22;46442;-88
2022/12/03 14:56:16;;;;;;;;;21.33;19.00;;;;;7.67;62.44;-16780.69;6207725;22;45523;-87
2022/12/03 14:58:47;;;;;;;;;26.00;23.67;;;;;8.25;62.39;-16793.75;6234125;22;45447;-86